createdAt,value
2022-08-17T00:03:10.248Z,5.63
2022-08-17T00:06:17.245Z,6.18
2022-08-17T00:09:18.219Z,5.45
2022-08-17T00:12:41.714Z,5.40
2022-08-17T00:15:33.922Z,5.95
2022-08-17T00:19:05.818Z,5.43
2022-08-17T00:22:29.787Z,5.35
2022-08-17T00:25:16.781Z,5.18
2022-08-17T00:28:16.161Z,6.05
2022-08-17T00:31:13.866Z,6.20
2022-08-17T00:34:10.772Z,5.60
2022-08-17T00:37:07.632Z,5.18
2022-08-17T00:40:05.858Z,5.60
2022-08-17T00:43:47.355Z,5.88
2022-08-17T00:46:45.487Z,5.75
2022-08-17T00:49:42.374Z,5.78
2022-08-17T00:52:52.541Z,5.38
2022-08-17T00:55:49.525Z,5.70
2022-08-17T00:58:47.228Z,5.50
2022-08-17T01:01:44.806Z,5.90
2022-08-17T01:04:46.564Z,6.00
2022-08-17T01:07:44.567Z,5.72
2022-08-17T01:10:59.735Z,5.72
2022-08-17T01:13:58.423Z,6.00
2022-08-17T01:16:56.298Z,5.32
2022-08-17T01:19:53.229Z,5.70
2022-08-17T01:22:50.215Z,6.18
2022-08-17T01:25:51.367Z,5.78
2022-08-17T01:28:54.974Z,6.28
2022-08-17T01:32:00.066Z,6.00
2022-08-17T01:34:57.417Z,6.18
2022-08-17T01:37:54.279Z,5.72
2022-08-17T01:40:57.973Z,6.03
2022-08-17T01:44:00.953Z,5.90
2022-08-17T01:46:58.156Z,5.72
2022-08-17T01:49:57.902Z,5.65
2022-08-17T01:53:00.687Z,5.65
2022-08-17T01:56:05.412Z,5.30
2022-08-17T01:59:02.913Z,5.47
2022-08-17T02:02:00.441Z,5.60
2022-08-17T02:04:57.283Z,5.57
2022-08-17T02:08:00.232Z,6.07
2022-08-17T02:10:58.074Z,5.60
2022-08-17T02:13:58.315Z,6.25
2022-08-17T02:16:59.884Z,6.00
2022-08-17T02:19:56.945Z,6.40
2022-08-17T02:22:53.834Z,6.22
2022-08-17T02:25:50.894Z,6.55
2022-08-17T02:28:47.740Z,6.60
2022-08-17T02:31:44.770Z,5.90
2022-08-17T02:34:41.591Z,5.20
2022-08-17T02:37:38.844Z,6.18
2022-08-17T02:40:37.245Z,5.53
2022-08-17T02:43:34.914Z,6.32
2022-08-17T02:46:32.426Z,5.68
2022-08-17T02:49:29.241Z,5.90
2022-08-17T02:52:42.979Z,5.93
2022-08-17T02:55:43.507Z,6.28
2022-08-17T02:58:40.412Z,6.13
2022-08-17T03:01:37.323Z,5.80
2022-08-17T03:04:35.498Z,5.82
2022-08-17T03:07:32.428Z,6.22
2022-08-17T03:10:29.816Z,5.55
2022-08-17T03:13:27.210Z,6.20
2022-08-17T03:16:24.048Z,5.50
2022-08-17T03:19:20.870Z,5.97
2022-08-17T03:22:34.702Z,6.10
2022-08-17T03:25:38.745Z,6.28
2022-08-17T03:28:35.620Z,5.97
2022-08-17T03:31:32.473Z,6.13
2022-08-17T03:34:30.218Z,5.63
2022-08-17T03:37:27.181Z,5.78
2022-08-17T03:40:55.622Z,5.45
2022-08-17T03:43:41.330Z,5.43
2022-08-17T03:46:56.784Z,6.15
2022-08-17T03:50:28.587Z,5.93
2022-08-17T03:53:44.054Z,5.28
2022-08-17T03:56:42.291Z,6.15
2022-08-17T03:59:41.195Z,6.18
2022-08-17T04:02:38.052Z,5.85
2022-08-17T04:05:34.883Z,6.32
2022-08-17T04:08:32.049Z,6.40
2022-08-17T04:11:28.929Z,5.95
2022-08-17T04:14:25.740Z,6.20
2022-08-17T04:17:26.712Z,6.50
2022-08-17T04:20:25.163Z,5.80
2022-08-17T04:23:21.999Z,5.95
2022-08-17T04:26:52.810Z,5.88
2022-08-17T04:29:44.669Z,6.03
2022-08-17T04:33:08.587Z,6.45
2022-08-17T04:36:07.849Z,7.13
2022-08-17T04:39:05.209Z,8.60
2022-08-17T04:42:07.934Z,5.60
2022-08-17T04:45:05.513Z,6.05
2022-08-17T04:48:02.584Z,6.47
2022-08-17T04:51:00.087Z,6.63
2022-08-17T04:54:02.081Z,6.20
2022-08-17T04:56:58.987Z,5.65
2022-08-17T04:59:55.829Z,5.65
2022-08-17T05:02:55.327Z,5.68
2022-08-17T05:05:52.506Z,5.50
2022-08-17T05:08:49.624Z,5.80
2022-08-17T05:11:47.273Z,5.40
2022-08-17T05:14:44.075Z,5.72
2022-08-17T05:17:40.925Z,5.68
2022-08-17T05:20:39.665Z,5.70
2022-08-17T05:23:42.696Z,5.45
2022-08-17T05:26:40.006Z,5.80
2022-08-17T05:29:39.312Z,5.63
2022-08-17T05:32:38.322Z,5.43
2022-08-17T05:35:42.592Z,4.70
2022-08-17T05:38:39.769Z,5.15
2022-08-17T05:41:36.648Z,5.32
2022-08-17T05:44:33.480Z,6.05
2022-08-17T05:47:31.284Z,5.85
2022-08-17T05:50:42.372Z,5.28
2022-08-17T05:54:06.983Z,6.10
2022-08-17T05:57:21.426Z,6.00
2022-08-17T06:00:21.895Z,5.45
2022-08-17T06:03:39.194Z,5.63
2022-08-17T06:07:15.962Z,6.03
2022-08-17T06:10:40.506Z,6.50
2022-08-17T06:14:20.523Z,5.72
2022-08-17T06:17:23.838Z,5.47
2022-08-17T06:20:20.967Z,5.10
2022-08-17T06:23:44.940Z,5.65
2022-08-17T06:26:45.374Z,5.60
2022-08-17T06:29:50.643Z,5.30
2022-08-17T06:32:51.109Z,6.07
2022-08-17T06:36:41.592Z,5.18
2022-08-17T06:40:20.454Z,5.38
2022-08-17T06:43:43.998Z,5.50
2022-08-17T06:47:00.142Z,4.97
2022-08-17T06:50:17.495Z,6.00
2022-08-17T06:53:35.432Z,5.22
2022-08-17T06:56:55.705Z,5.32
2022-08-17T07:00:14.448Z,26.00
2022-08-17T07:03:41.111Z,13.43
2022-08-17T07:06:49.537Z,6.57
2022-08-17T07:09:46.441Z,5.78
2022-08-17T07:12:45.661Z,11.10
2022-08-17T07:15:44.748Z,6.43
2022-08-17T07:18:43.724Z,5.22
2022-08-17T07:22:04.525Z,4.93
2022-08-17T07:28:07.232Z,4.38
2022-08-17T07:31:04.761Z,4.30
2022-08-17T07:34:08.345Z,4.25
2022-08-17T07:37:05.551Z,4.38
2022-08-17T07:40:19.408Z,4.38
2022-08-17T07:43:26.100Z,4.18
2022-08-17T07:46:52.720Z,4.15
2022-08-17T07:49:50.550Z,4.30
2022-08-17T07:52:52.264Z,3.75
2022-08-17T07:55:51.681Z,3.83
2022-08-17T07:58:49.122Z,4.18
2022-08-17T08:01:57.733Z,3.70
2022-08-17T08:05:49.416Z,4.55
2022-08-17T08:08:50.418Z,3.90
2022-08-17T08:11:47.343Z,3.55
2022-08-17T08:14:56.245Z,3.70
2022-08-17T08:18:04.781Z,3.35
2022-08-17T08:21:18.337Z,3.20
2022-08-17T08:24:30.822Z,3.75
2022-08-17T08:27:41.801Z,3.50
2022-08-17T08:30:49.799Z,3.20
2022-08-17T08:35:00.688Z,3.40
2022-08-17T08:38:07.565Z,3.20
2022-08-17T08:41:54.613Z,3.45
2022-08-17T08:45:19.871Z,3.10
2022-08-17T08:49:11.849Z,3.20
2022-08-17T08:52:49.166Z,3.28
2022-08-17T08:55:54.986Z,3.13
2022-08-17T08:59:35.190Z,2.67
2022-08-17T09:03:04.604Z,2.80
2022-08-17T09:06:39.017Z,2.95
2022-08-17T09:10:06.461Z,2.90
2022-08-17T09:13:54.209Z,3.30
2022-08-17T09:17:02.193Z,2.83
2022-08-17T09:20:27.898Z,2.95
2022-08-17T09:23:44.843Z,2.90
2022-08-17T09:26:54.836Z,2.97
2022-08-17T09:30:08.438Z,3.30
2022-08-17T09:33:09.373Z,3.38
2022-08-17T09:36:18.672Z,3.13
2022-08-17T09:39:36.539Z,3.47
2022-08-17T09:42:45.208Z,3.45
2022-08-17T09:45:51.934Z,3.08
2022-08-17T09:49:02.517Z,3.20
2022-08-17T09:52:09.818Z,4.00
2022-08-17T09:55:07.187Z,3.60
2022-08-17T09:58:48.826Z,3.05
2022-08-17T10:02:01.931Z,3.30
2022-08-17T10:05:05.276Z,3.08
2022-08-17T10:08:32.110Z,3.33
2022-08-17T10:12:07.707Z,3.22
2022-08-17T10:15:18.734Z,3.50
2022-08-17T10:19:02.487Z,3.20
2022-08-17T10:22:34.470Z,2.70
2022-08-17T10:26:12.886Z,2.92
2022-08-17T10:29:09.732Z,3.00
2022-08-17T10:32:11.612Z,2.92
2022-08-17T10:35:25.678Z,3.35
2022-08-17T10:38:49.608Z,2.85
2022-08-17T10:41:53.137Z,2.78
2022-08-17T10:45:07.293Z,2.90
2022-08-17T10:48:07.390Z,2.90
2022-08-17T10:51:37.815Z,2.75
2022-08-17T10:57:50.220Z,3.07
2022-08-17T11:00:58.458Z,3.17
2022-08-17T11:03:59.491Z,2.90
2022-08-17T11:07:48.133Z,3.30
2022-08-17T11:11:15.083Z,2.67
2022-08-17T11:14:36.098Z,3.45
2022-08-17T11:18:25.224Z,2.80
2022-08-17T11:22:02.373Z,3.58
2022-08-17T11:25:22.628Z,3.05
2022-08-17T11:28:34.463Z,2.80
2022-08-17T11:31:41.116Z,2.72
2022-08-17T11:34:41.767Z,2.75
2022-08-17T11:38:10.844Z,2.88
2022-08-17T11:41:31.418Z,3.25
2022-08-17T11:44:58.026Z,2.80
2022-08-17T11:48:28.265Z,2.83
2022-08-17T11:52:11.158Z,2.80
2022-08-17T11:55:39.415Z,2.85
2022-08-17T11:58:42.605Z,3.10
2022-08-17T12:01:55.749Z,3.42
2022-08-17T12:05:14.363Z,3.50
2022-08-17T12:08:21.438Z,3.40
2022-08-17T12:12:01.542Z,3.30
2022-08-17T12:15:18.745Z,3.45
2022-08-17T12:18:25.749Z,3.20
2022-08-17T12:22:00.287Z,3.10
2022-08-17T12:25:10.812Z,2.75
2022-08-17T12:28:29.724Z,2.70
2022-08-17T12:31:43.304Z,3.03
2022-08-17T12:34:42.890Z,2.90
2022-08-17T12:37:47.654Z,2.88
2022-08-17T12:40:58.121Z,2.75
2022-08-17T12:44:15.822Z,3.00
2022-08-17T12:47:22.674Z,2.97
2022-08-17T12:50:28.807Z,2.60
2022-08-17T12:53:31.989Z,2.42
2022-08-17T12:56:29.907Z,2.78
2022-08-17T12:59:30.399Z,2.83
2022-08-17T13:02:43.394Z,2.92
2022-08-17T13:05:57.554Z,3.42
2022-08-17T13:08:54.426Z,2.72
2022-08-17T13:11:58.512Z,3.53
2022-08-17T13:14:57.376Z,2.95
2022-08-17T13:18:25.299Z,3.20
2022-08-17T13:21:30.493Z,3.75
2022-08-17T13:24:38.150Z,3.50
2022-08-17T13:27:35.998Z,3.25
2022-08-17T13:30:33.539Z,3.10
2022-08-17T13:33:44.827Z,2.88
2022-08-17T13:36:43.790Z,3.10
2022-08-17T13:42:51.741Z,3.35
2022-08-17T13:45:52.503Z,2.97
2022-08-17T13:49:11.731Z,3.00
2022-08-17T13:52:34.152Z,3.40
2022-08-17T13:55:32.003Z,3.15
2022-08-17T13:58:36.041Z,3.20
2022-08-17T14:01:45.873Z,3.13
2022-08-17T14:04:48.077Z,3.50
2022-08-17T14:07:45.029Z,3.60
2022-08-17T14:10:42.804Z,3.10
2022-08-17T14:13:39.628Z,3.50
2022-08-17T14:16:41.723Z,3.15
2022-08-17T14:19:39.605Z,3.42
2022-08-17T14:22:41.123Z,3.25
2022-08-17T14:25:37.956Z,3.47
2022-08-17T14:28:36.523Z,3.40
2022-08-17T14:31:37.563Z,3.30
2022-08-17T14:34:34.569Z,3.20
2022-08-17T14:37:32.090Z,3.92
2022-08-17T14:40:29.285Z,3.60
2022-08-17T14:43:26.540Z,3.85
2022-08-17T14:46:45.609Z,3.72
2022-08-17T14:49:42.852Z,3.05
2022-08-17T14:52:41.727Z,3.22
2022-08-17T14:55:40.680Z,3.20
2022-08-17T14:58:38.511Z,3.58
2022-08-17T15:01:35.490Z,3.00
2022-08-17T15:04:32.347Z,3.53
2022-08-17T15:07:30.270Z,3.20
2022-08-17T15:10:29.307Z,3.55
2022-08-17T15:13:27.510Z,3.47
2022-08-17T15:16:24.392Z,3.03
2022-08-17T15:19:21.296Z,3.00
2022-08-17T15:22:28.140Z,3.47
2022-08-17T15:25:31.640Z,3.50
2022-08-17T15:28:28.487Z,3.13
2022-08-17T15:31:31.799Z,3.30
2022-08-17T15:34:29.996Z,3.35
2022-08-17T15:37:29.484Z,3.45
2022-08-17T15:40:26.845Z,3.67
2022-08-17T15:43:28.344Z,3.22
2022-08-17T15:46:26.743Z,3.42
2022-08-17T15:49:23.567Z,3.60
2022-08-17T15:52:27.301Z,3.47
2022-08-17T15:55:26.190Z,3.60
2022-08-17T15:58:32.246Z,3.35
2022-08-17T16:03:01.812Z,3.40
2022-08-17T16:04:49.115Z,3.35
2022-08-17T16:07:50.081Z,3.10
2022-08-17T16:10:48.539Z,3.47
2022-08-17T16:13:47.399Z,3.38
2022-08-17T16:16:52.727Z,3.17
2022-08-17T16:19:51.557Z,3.55
2022-08-17T16:22:50.552Z,3.80
2022-08-17T16:25:52.721Z,3.63
2022-08-17T16:28:52.153Z,3.60
2022-08-17T16:31:49.825Z,3.50
2022-08-17T16:34:46.703Z,3.45
2022-08-17T16:37:45.666Z,3.35
2022-08-17T16:40:42.688Z,3.75
2022-08-17T16:43:39.553Z,4.10
2022-08-17T16:46:38.066Z,3.53
2022-08-17T16:49:37.795Z,3.55
2022-08-17T16:52:35.830Z,4.07
2022-08-17T16:55:35.482Z,3.20
2022-08-17T16:58:32.341Z,3.50
2022-08-17T17:01:30.417Z,4.65
2022-08-17T17:04:27.719Z,3.80
2022-08-17T17:07:44.134Z,4.45
2022-08-17T17:10:55.852Z,4.75
2022-08-17T17:13:59.557Z,4.03
2022-08-17T17:17:19.166Z,4.88
2022-08-17T17:21:00.393Z,3.60
2022-08-17T17:24:04.661Z,3.92
2022-08-17T17:27:38.093Z,4.07
2022-08-17T17:31:02.163Z,4.53
2022-08-17T17:34:04.632Z,4.50
2022-08-17T17:37:13.630Z,4.55
2022-08-17T17:40:40.258Z,3.88
2022-08-17T17:43:40.316Z,4.28
2022-08-17T17:49:44.561Z,4.18
2022-08-17T17:52:50.241Z,4.00
2022-08-17T17:56:33.077Z,3.60
2022-08-17T18:00:45.831Z,4.32
2022-08-17T18:04:20.234Z,4.22
2022-08-17T18:07:40.921Z,4.50
2022-08-17T18:11:24.371Z,4.50
2022-08-17T18:14:56.308Z,4.47
2022-08-17T18:18:05.483Z,4.65
2022-08-17T18:21:27.512Z,4.53
2022-08-17T18:24:40.455Z,4.93
2022-08-17T18:27:49.423Z,4.18
2022-08-17T18:31:14.802Z,4.30
2022-08-17T18:37:52.134Z,4.38
2022-08-17T18:41:18.493Z,4.60
2022-08-17T18:44:45.087Z,5.10
2022-08-17T18:47:56.174Z,4.32
2022-08-17T18:50:58.217Z,4.60
2022-08-17T18:54:21.573Z,4.80
2022-08-17T18:57:38.079Z,4.97
2022-08-17T19:00:41.401Z,4.97
2022-08-17T19:03:43.188Z,5.30
2022-08-17T19:06:40.424Z,7.97
2022-08-17T19:09:47.127Z,4.85
2022-08-17T19:13:12.637Z,5.18
2022-08-17T19:16:57.775Z,4.95
2022-08-17T19:20:01.143Z,4.80
2022-08-17T19:23:23.789Z,5.63
2022-08-17T19:26:55.345Z,5.78
2022-08-17T19:29:56.507Z,5.55
2022-08-17T19:32:54.441Z,5.45
2022-08-17T19:36:21.455Z,5.95
2022-08-17T19:39:59.301Z,5.35
2022-08-17T19:43:11.941Z,5.25
2022-08-17T19:46:26.018Z,5.35
2022-08-17T19:49:46.720Z,5.30
2022-08-17T19:56:29.429Z,5.22
2022-08-17T19:59:53.843Z,5.97
2022-08-17T20:03:16.118Z,5.18
2022-08-17T20:06:14.406Z,5.32
2022-08-17T20:09:40.011Z,5.30
2022-08-17T20:12:43.951Z,5.07
2022-08-17T20:15:43.182Z,5.53
2022-08-17T20:19:00.643Z,5.30
2022-08-17T20:22:27.476Z,5.45
2022-08-17T20:25:56.731Z,5.47
2022-08-17T20:29:15.307Z,5.60
2022-08-17T20:32:26.598Z,5.45
2022-08-17T20:35:30.332Z,5.50
2022-08-17T20:38:42.629Z,5.75
2022-08-17T20:42:07.335Z,5.70
2022-08-17T20:45:25.903Z,6.10
2022-08-17T20:48:38.649Z,5.18
2022-08-17T20:52:08.822Z,5.53
2022-08-17T20:55:06.478Z,5.80
2022-08-17T20:58:15.305Z,5.80
2022-08-17T21:01:20.133Z,5.97
2022-08-17T21:04:52.965Z,5.88
2022-08-17T21:07:58.229Z,5.35
2022-08-17T21:10:57.479Z,5.78
2022-08-17T21:14:40.823Z,5.93
2022-08-17T21:17:46.982Z,5.38
2022-08-17T21:21:31.560Z,6.32
2022-08-17T21:24:40.239Z,6.13
2022-08-17T21:28:15.620Z,5.85
2022-08-17T21:31:30.606Z,5.93
2022-08-17T21:34:43.082Z,5.60
2022-08-17T21:37:49.867Z,6.13
2022-08-17T21:40:53.060Z,6.40
2022-08-17T21:43:52.611Z,6.00
2022-08-17T21:46:53.287Z,6.47
2022-08-17T21:52:56.072Z,6.10
2022-08-17T21:55:53.430Z,6.10
2022-08-17T21:59:03.520Z,5.90
2022-08-17T22:02:16.778Z,5.25
2022-08-17T22:05:15.222Z,5.50
2022-08-17T22:08:22.294Z,5.20
2022-08-17T22:11:19.141Z,5.72
2022-08-17T22:14:52.265Z,5.70
2022-08-17T22:17:50.852Z,5.75
2022-08-17T22:20:57.723Z,5.45
2022-08-17T22:24:06.446Z,5.72
2022-08-17T22:27:11.552Z,5.82
2022-08-17T22:30:42.717Z,5.70
2022-08-17T22:34:00.204Z,5.53
2022-08-17T22:37:28.085Z,5.80
2022-08-17T22:40:30.441Z,6.15
2022-08-17T22:43:28.707Z,5.55
2022-08-17T22:46:26.208Z,5.32
2022-08-17T22:49:38.470Z,5.05
2022-08-17T22:53:37.794Z,5.72
2022-08-17T22:56:53.692Z,6.15
2022-08-17T22:59:54.752Z,5.40
2022-08-17T23:03:26.321Z,5.65
2022-08-17T23:06:24.252Z,6.07
2022-08-17T23:09:21.714Z,6.18
2022-08-17T23:12:26.491Z,6.15
2022-08-17T23:15:27.101Z,6.10
2022-08-17T23:18:25.240Z,5.97
2022-08-17T23:21:27.085Z,6.07
2022-08-17T23:24:31.054Z,6.28
2022-08-17T23:27:29.299Z,6.18
2022-08-17T23:30:28.407Z,6.18
2022-08-17T23:33:31.373Z,5.95
2022-08-17T23:36:28.418Z,5.72
2022-08-17T23:39:28.160Z,5.65
2022-08-17T23:42:25.333Z,5.85
2022-08-17T23:45:22.177Z,6.22
2022-08-17T23:48:35.073Z,6.03
2022-08-17T23:51:39.653Z,6.60
2022-08-17T23:54:44.350Z,7.05
2022-08-17T23:57:41.483Z,6.55
